• Join FlightAware (Why Join?)
  • Login
  • US Flag 
03:33PM EDT


 

Airport Tracker/Info


-or-


 

Live Flight TrackerFlight Track Log ✈ ASQ5941 ✈ 07-Jul-2013 ✈ KORD - KAVP

Flight Track Log - Related Links

Times and Time Zones

All times are in EDT time to prevent confusion due to time zone crossing. See the ASQ5941 flight status page for this flight to view local times or setup timezone preferences in your user account.

Time Position Orientation Groundspeed Altitude Reporting Facility
EDT Latitude Longitude Course Direction KTS MPH feet Rate Location/Type
02:49PM 42.0167 -87.9500 90° East 192 221 2,700  Level Chicago TRACON
02:50PM 42.0667 -87.9500 360° North 243 280 4,300 1,560 Climbing Chicago TRACON
02:51PM 42.0398 -87.4793 83° East  Level FlightAware Approximate
02:51PM 42.1361 -87.8692 41° Northeast 267 307 6,300  Level Chicago Center
02:52PM 42.0550 -87.3343 78° East  Level FlightAware Approximate
02:52PM 42.1517 -87.7372 81° East 296 341 9,000  Level Chicago Center
02:53PM 42.0771 -87.1907 78° East  Level FlightAware Approximate
02:53PM 42.1433 -87.6267 96° East 298 343 10,900  Level Chicago Center
02:54PM 42.1000 -87.0479 90° East  Level FlightAware Approximate
02:54PM 42.1464 -87.5061 88° East 320 368 12,000  Level Chicago Center
02:55PM 42.1519 -87.3744 87° East 347 399 13,100 1,140 Climbing Chicago Center
02:56PM 42.1575 -87.2369 87° East 362 417 14,400 1,500 Climbing Chicago Center
02:57PM 42.1642 -87.0742 87° East 363 418 16,200 1,560 Climbing Chicago Center
02:58PM 42.1683 -86.9406 88° East 358 412 17,700 1,260 Climbing Chicago Center
02:59PM 42.1728 -86.8089 87° East 354 407 18,900 1,080 Climbing Chicago Center
03:00PM 42.1783 -86.6611 87° East 368 423 20,000 1,020 Climbing Chicago Center
03:01PM 42.1839 -86.5208 87° East 376 433 21,100 960 Climbing Chicago Center
03:02PM 42.1872 -86.3775 88° East 381 438 22,100 960 Climbing Chicago Center
03:03PM 42.1928 -86.2325 87° East 385 443 23,100 960 Climbing Chicago Center
03:04PM 42.1961 -86.0867 88° East 388 447 24,200 1,080 Climbing Chicago Center
03:05PM 42.2008 -85.9250 88° East 387 445 25,400 1,020 Climbing Chicago Center
03:07PM 42.2047 -85.7794 88° East 390 449 26,400 960 Climbing Chicago Center
03:08PM 42.2092 -85.6331 88° East 392 451 27,400 960 Climbing Chicago Center
03:09PM 42.2119 -85.4878 88° East 391 450 28,400 1,080 Climbing Chicago Center
03:10PM 42.2167 -85.3136 88° East 388 447 29,700 1,080 Climbing Chicago Center
03:11PM 42.2203 -85.1658 88° East 394 453 30,700 960 Climbing Chicago Center
03:12PM 42.2233 -85.0189 88° East 395 455 31,800 960 Climbing Chicago Center
03:13PM 42.2272 -84.8725 88° East 393 452 32,800 960 Climbing Chicago Center
03:14PM 42.2292 -84.7208 89° East 396 456 33,800 1,020 Climbing Chicago Center
03:15PM 42.2319 -84.5492 89° East 391 450 35,000 540 Climbing Chicago Center
03:16PM 42.2328 -84.3997 90° East 399 459 35,000  Level Chicago Center
03:17PM 42.2272 -84.2933 94° East 395 455 35,000  Level Cleveland Center
03:18PM 42.2219 -84.1331 92° East 412 474 35,000  Level Cleveland Center
03:19PM 42.2183 -83.9758 92° East 417 480 35,000  Level Cleveland Center
03:20PM 42.2125 -83.8214 93° East 417 480 35,000 300 Level Cleveland Center
03:21PM 42.2061 -83.6697 93° East 417 480 35,700 780 Climbing Cleveland Center
03:22PM 42.2014 -83.5292 93° East 417 480 36,600 600 Climbing Cleveland Center
03:23PM 42.1969 -83.3775 92° East 410 472 37,000 180 Climbing Cleveland Center
03:24PM 42.1906 -83.2092 93° East 405 466 37,000  Level Cleveland Center
03:25PM 42.1856 -83.0575 92° East 427 491 37,000  Level Cleveland Center
03:26PM 42.1744 -82.8919 95° East 432 497 37,000  Level Cleveland Center
03:27PM 42.1714 -82.7236 91° East 444 511 37,000  Level Cleveland Center
03:28PM 42.1575 -82.5813 95° East  Level FlightAware Approximate
03:29PM 42.1583 -82.3925 95° East 444 511 37,000  Level Cleveland Center
03:30PM 42.1483 -82.2300 95° East 444 511 37,000  Level Cleveland Center
03:31PM 42.1444 -82.0478 92° East 444 511 37,000  Level Cleveland Center
03:32PM 42.1358 -81.9019 95° East 444 511 37,000  Level Cleveland Center
03:33PM 42.1272 -81.7422 94° East 438 504 37,000  Level Cleveland Center
03:34PM 42.1183 -81.5769 94° East 438 504 37,000  Level Cleveland Center
03:35PM 42.1111 -81.4144 93° East 438 504 37,000  Level Cleveland Center
03:36PM 42.0997 -81.2492 95° East 445 512 37,000  Level Cleveland Center
03:37PM 42.0922 -81.0728 93° East 439 505 37,000  Level Cleveland Center
03:38PM 42.0825 -80.9133 95° East 433 498 37,000  Level Cleveland Center
03:39PM 42.0725 -80.7511 95° East 438 504 37,000  Level Cleveland Center
03:40PM 42.0642 -80.5886 94° East 444 511 37,000  Level Cleveland Center
03:41PM 42.0536 -80.4239 95° East 444 511 37,000  Level Cleveland Center
03:42PM 42.0450 -80.2589 94° East 444 511 37,000 -60 Level Cleveland Center
03:43PM 42.0339 -80.0967 95° East 444 511 36,900 -600 Descending Cleveland Center
03:44PM 42.0228 -79.9319 95° East 444 511 35,800 -960 Descending Cleveland Center
03:45PM 42.0133 -79.7672 94° East 444 511 35,000 -420 Descending Cleveland Center
03:46PM 42.0017 -79.6053 95° East 439 505 35,000  Level Cleveland Center
03:47PM 41.9897 -79.4489 96° East 434 499 35,000  Level Cleveland Center
03:48PM 41.9778 -79.2844 96° East 434 499 35,000 -720 Level Cleveland Center
03:49PM 41.9653 -79.1172 96° East 439 505 33,600 -1,500 Descending Cleveland Center
03:50PM 41.9503 -78.9444 97° East 451 519 32,000 -1,620 Descending Cleveland Center
03:51PM 41.9417 -78.7714 94° East 456 525 30,400 -1,620 Descending Cleveland Center
03:52PM 41.9261 -78.6017 97° East 462 532 28,800 -1,620 Descending Cleveland Center
03:53PM 41.9128 -78.4347 96° East 462 532 27,200 -1,620 Descending Cleveland Center
03:54PM 41.8992 -78.2650 96° East 457 526 25,600 -2,100 Descending Cleveland Center
03:55PM 41.8831 -78.0953 97° East 457 526 23,000 -1,320 Descending Cleveland Center
03:56PM 41.8711 -77.9342 96° East 452 520 23,000  Level Cleveland Center
03:56PM 41.8583 -77.8475 101° East 456 525 23,000  Level New York Center
03:57PM 41.8067 -77.7028 116° Southeast 440 506 23,000  Level New York Center
03:58PM 41.7481 -77.5603 119° Southeast 440 506 23,000 -120 Level New York Center
03:59PM 41.6928 -77.3964 114° Southeast 440 506 22,800 -600 Descending New York Center
04:00PM 41.6728 -77.2306 99° East 440 506 21,800 -900 Descending New York Center
04:01PM 41.6567 -77.0622 97° East 445 512 21,000 -1,320 Descending New York Center
04:02PM 41.6397 -76.9081 98° East 440 506 19,200 -1,920 Descending New York Center
04:03PM 41.6228 -76.7539 98° East 428 493 17,200 -2,160 Descending New York Center
04:04PM 41.6053 -76.6025 99° East 417 480 15,000 -2,040 Descending New York Center
04:05PM 41.5908 -76.4708 98° East 377 434 13,100 -1,860 Descending New York Center
04:06PM 41.5761 -76.3392 98° East 354 407 11,300 -1,740 Descending New York Center
04:07PM 41.5625 -76.2300 99° East 335 386 9,700 -1,680 Descending New York Center
04:08PM 41.5444 -76.1231 103° East 309 356 8,100 -1,800 Descending New York Center
04:09PM 41.5011 -76.0200 119° Southeast 288 331 6,200 -1,380 Descending New York Center
04:11PM 41.4381 -75.8461 116° Southeast 267 307 4,000 -900 Descending New York Center
04:12PM 41.4158 -75.7781 114° Southeast 250 288 3,500 -540 Descending New York Center